Albany International Airport Albany US
ICAO: KALB
IATA: ALB
Category: Medium
Scheduled Services: Yes

Elevation: 285 ft
TransAlt. 18000 ft.

Airport Communications:
APP/DEP:118.05
ATIS:120.45
CLNC DEL:127.5
GND:121.7
ARNG OPS:41
BURLINGTON RDO:122.2
TWR:119.5
UNICOM:122.95

KALB Zoom In..

If you have problems with the map follow the link
https://www.worldairports.se/pages/airport.php?
ICAO=KALB

Runways:

(A) RW 01 length 8500 ft width 150 ft
ILS 109.50 / hdg 11

(B) RW 10 length 7200 ft width 150 ft
---- / hdg 101

(C) RW 19 length 8500 ft width 150 ft
ILS 109.50 / hdg 191

(D) RW 28 length 7200 ft width 150 ft
---- / hdg 281

Location; KALB
Day. 18 / Time. 21.51 Zulu
* Altimeter: 30.04
* Temperature: 01° c. 33.8°f.
* Wind from: 180° Speed 03 kn.
Dewpoint: -03° c.
Visibility: 10 Statute Miles.
Clouds: Broken 2900 ft.
Clouds: Overcast 4600 ft.
Conditions: Light Snow.

KALB 182151Z 18003KT 10SM -SN BKN029 OVC046 01/M03 A3004 RMK AO2 SNB17 SLP176 PCPN VRY LGT P0000 T00111028


Wind From 180°
Speed 03 kn.

 
 
jpsmedia.com for Web Design worldairports.se 2019   terms of use